createdAt,value
2022-08-03T00:00:49.235Z,2.90
2022-08-03T00:06:03.922Z,2.80
2022-08-03T00:11:07.074Z,2.92
2022-08-03T00:16:10.246Z,2.80
2022-08-03T00:21:12.229Z,3.15
2022-08-03T00:26:13.881Z,3.00
2022-08-03T00:31:15.637Z,2.75
2022-08-03T00:36:17.236Z,2.88
2022-08-03T00:41:18.809Z,3.00
2022-08-03T00:46:22.363Z,2.55
2022-08-03T00:51:24.133Z,2.80
2022-08-03T00:56:26.147Z,2.92
2022-08-03T01:01:29.156Z,3.25
2022-08-03T01:06:44.316Z,2.90
2022-08-03T01:12:44.294Z,3.20
2022-08-03T01:18:00.699Z,2.85
2022-08-03T01:23:31.107Z,3.10
2022-08-03T01:28:38.210Z,3.05
2022-08-03T01:33:47.107Z,3.45
2022-08-03T01:38:52.498Z,3.13
2022-08-03T01:44:30.134Z,3.83
2022-08-03T01:49:17.591Z,3.70
2022-08-03T01:54:19.811Z,3.47
2022-08-03T01:59:22.208Z,3.75
2022-08-03T02:04:24.507Z,3.78
2022-08-03T02:09:27.921Z,3.97
2022-08-03T02:14:30.130Z,4.28
2022-08-03T02:19:35.779Z,3.70
2022-08-03T02:24:37.649Z,3.67
2022-08-03T02:29:40.958Z,4.10
2022-08-03T02:34:46.705Z,3.72
2022-08-03T02:39:49.297Z,3.70
2022-08-03T02:44:53.303Z,3.42
2022-08-03T02:49:56.847Z,3.83
2022-08-03T02:55:00.495Z,3.83
2022-08-03T03:00:02.286Z,3.85
2022-08-03T03:05:56.336Z,3.80
2022-08-03T03:10:26.208Z,4.53
2022-08-03T03:15:28.457Z,4.57
2022-08-03T03:20:30.674Z,3.83
2022-08-03T03:25:33.217Z,4.72
2022-08-03T03:30:34.804Z,4.43
2022-08-03T03:35:38.863Z,4.68
2022-08-03T03:40:41.213Z,4.78
2022-08-03T03:45:43.303Z,4.90
2022-08-03T03:50:44.915Z,4.80
2022-08-03T03:56:01.601Z,5.00
2022-08-03T04:01:04.670Z,5.15
2022-08-03T04:06:24.842Z,5.07
2022-08-03T04:11:31.798Z,5.13
2022-08-03T04:16:43.173Z,5.43
2022-08-03T04:21:48.652Z,5.53
2022-08-03T04:26:52.738Z,5.38
2022-08-03T04:31:54.935Z,5.63
2022-08-03T04:36:59.648Z,4.55
2022-08-03T04:42:08.493Z,4.93
2022-08-03T04:47:10.639Z,5.07
2022-08-03T04:52:12.321Z,6.05
2022-08-03T04:57:22.152Z,5.55
2022-08-03T05:02:24.921Z,5.10
2022-08-03T05:07:26.547Z,5.53
2022-08-03T05:12:37.712Z,5.43
2022-08-03T05:17:39.332Z,4.88
2022-08-03T05:22:40.927Z,4.68
2022-08-03T05:27:42.538Z,4.95
2022-08-03T05:32:44.087Z,4.32
2022-08-03T05:37:54.759Z,4.18
2022-08-03T05:42:57.008Z,4.00
2022-08-03T05:47:59.613Z,4.38
2022-08-03T05:53:01.154Z,3.65
2022-08-03T05:58:03.859Z,3.65
2022-08-03T06:03:05.570Z,3.75
2022-08-03T06:08:07.184Z,4.05
2022-08-03T06:13:08.714Z,3.70
2022-08-03T06:18:10.348Z,3.83
2022-08-03T06:23:16.249Z,3.55
2022-08-03T06:28:51.643Z,3.38
2022-08-03T06:34:31.589Z,3.72
2022-08-03T06:39:03.759Z,3.97
2022-08-03T06:44:05.744Z,4.07
2022-08-03T06:49:08.011Z,3.65
2022-08-03T06:54:09.834Z,3.72
2022-08-03T07:00:08.338Z,3.78
2022-08-03T07:04:33.392Z,3.35
2022-08-03T07:09:34.964Z,3.42
2022-08-03T07:14:36.548Z,3.20
2022-08-03T07:19:38.272Z,3.13
2022-08-03T07:24:39.811Z,3.05
2022-08-03T07:29:41.342Z,3.40
2022-08-03T07:34:42.877Z,3.03
2022-08-03T07:39:44.835Z,2.80
2022-08-03T07:44:46.374Z,2.97
2022-08-03T07:49:48.019Z,3.20
2022-08-03T07:54:49.542Z,2.90
2022-08-03T07:59:57.171Z,2.90
2022-08-03T08:05:13.680Z,2.50
2022-08-03T08:10:15.240Z,2.97
2022-08-03T08:15:16.975Z,2.75
2022-08-03T08:20:30.415Z,2.85
2022-08-03T08:25:33.413Z,2.45
2022-08-03T08:30:35.131Z,2.40
2022-08-03T08:35:37.231Z,2.60
2022-08-03T08:40:38.866Z,1.92
2022-08-03T08:45:41.404Z,2.00
2022-08-03T08:50:43.172Z,2.88
2022-08-03T08:55:59.365Z,2.25
2022-08-03T09:01:02.002Z,2.35
2022-08-03T09:06:04.277Z,2.33
2022-08-03T09:11:05.913Z,2.15
2022-08-03T09:16:17.291Z,2.20
2022-08-03T09:21:35.491Z,2.15
2022-08-03T09:26:37.949Z,2.17
2022-08-03T09:31:43.672Z,2.30
2022-08-03T09:36:50.805Z,2.10
2022-08-03T09:42:07.457Z,2.20
2022-08-03T09:47:12.314Z,2.10
2022-08-03T09:52:37.967Z,2.20
2022-08-03T09:57:41.620Z,2.50
2022-08-03T10:02:46.199Z,2.85
2022-08-03T10:07:49.966Z,2.67
2022-08-03T10:12:51.779Z,2.05
2022-08-03T10:17:53.375Z,2.42
2022-08-03T10:22:55.210Z,2.47
2022-08-03T10:27:57.993Z,2.10
2022-08-03T10:33:03.519Z,2.05
2022-08-03T10:38:10.598Z,2.22
2022-08-03T10:43:19.028Z,1.95
2022-08-03T10:48:20.833Z,2.60
2022-08-03T10:53:36.481Z,2.70
2022-08-03T10:58:53.218Z,2.33
2022-08-03T11:03:58.837Z,2.58
2022-08-03T11:09:09.659Z,2.33
2022-08-03T11:14:16.796Z,2.97
2022-08-03T11:19:24.100Z,2.30
2022-08-03T11:24:41.077Z,2.30
2022-08-03T11:30:19.266Z,2.30
2022-08-03T11:35:32.171Z,2.17
2022-08-03T11:40:36.581Z,2.90
2022-08-03T11:45:38.550Z,2.25
2022-08-03T11:50:40.379Z,1.95
2022-08-03T11:55:44.364Z,2.35
2022-08-03T12:00:45.971Z,2.17
2022-08-03T12:05:51.909Z,2.55
2022-08-03T12:10:55.538Z,2.30
2022-08-03T12:15:59.063Z,3.20
2022-08-03T12:21:10.204Z,2.58
2022-08-03T12:26:11.909Z,2.70
2022-08-03T12:31:13.667Z,2.03
2022-08-03T12:36:15.338Z,2.33
2022-08-03T12:41:27.849Z,2.10
2022-08-03T12:46:34.925Z,2.28
2022-08-03T12:51:42.348Z,1.90
2022-08-03T12:57:02.810Z,2.08
2022-08-03T13:02:09.339Z,2.20
2022-08-03T13:07:17.987Z,1.90
2022-08-03T13:12:23.193Z,2.22
2022-08-03T13:17:25.549Z,2.53
2022-08-03T13:22:30.470Z,2.20
2022-08-03T13:28:04.293Z,9.15
2022-08-03T13:32:53.790Z,3.53
2022-08-03T13:37:55.386Z,9.18
2022-08-03T13:42:57.029Z,2.70
2022-08-03T13:47:58.632Z,2.03
2022-08-03T13:53:00.241Z,3.72
2022-08-03T13:58:07.248Z,5.30
2022-08-03T14:03:14.221Z,1.70
2022-08-03T14:08:16.352Z,3.70
2022-08-03T14:13:18.382Z,2.40
2022-08-03T14:18:28.805Z,7.57
2022-08-03T14:23:37.424Z,1.83
2022-08-03T14:28:39.015Z,1.90
2022-08-03T14:33:40.728Z,2.38
2022-08-03T14:38:42.310Z,2.00
2022-08-03T14:44:00.468Z,2.22
2022-08-03T14:50:30.829Z,2.00
2022-08-03T14:54:26.890Z,2.10
2022-08-03T14:59:28.428Z,3.05
2022-08-03T15:04:49.970Z,2.00
2022-08-03T15:09:51.526Z,1.95
2022-08-03T15:14:53.106Z,2.30
2022-08-03T15:20:01.364Z,2.10
2022-08-03T15:26:28.461Z,1.65
2022-08-03T15:30:31.304Z,1.75
2022-08-03T15:35:33.179Z,1.75
2022-08-03T15:40:34.761Z,2.00
2022-08-03T15:45:36.967Z,1.70
2022-08-03T15:50:38.820Z,2.17
2022-08-03T15:55:40.487Z,1.90
2022-08-03T16:00:43.006Z,2.00
2022-08-03T16:05:44.620Z,2.00
2022-08-03T16:10:47.218Z,1.98
2022-08-03T16:15:50.231Z,1.85
2022-08-03T16:20:51.775Z,2.13
2022-08-03T16:25:53.569Z,2.08
2022-08-03T16:30:55.157Z,2.10
2022-08-03T16:35:56.792Z,2.05
2022-08-03T16:40:58.424Z,2.10
2022-08-03T16:46:00.114Z,1.95
2022-08-03T16:51:02.863Z,2.10
2022-08-03T16:56:09.943Z,2.03
2022-08-03T17:01:24.253Z,2.00
2022-08-03T17:06:34.277Z,2.13
2022-08-03T17:11:46.389Z,2.50
2022-08-03T17:16:52.750Z,1.90
2022-08-03T17:22:09.800Z,2.20
2022-08-03T17:28:50.747Z,2.28
2022-08-03T17:32:56.699Z,1.90
2022-08-03T17:38:03.401Z,2.13
2022-08-03T17:44:14.509Z,1.90
2022-08-03T17:48:27.278Z,2.20
2022-08-03T17:53:33.455Z,1.88
2022-08-03T17:58:55.073Z,1.92
2022-08-03T18:03:59.262Z,2.30
2022-08-03T18:09:05.308Z,2.25
2022-08-03T18:14:32.397Z,2.47
2022-08-03T18:20:03.606Z,2.20
2022-08-03T18:24:59.129Z,2.00
2022-08-03T18:30:01.852Z,2.13
2022-08-03T18:35:04.229Z,2.40
2022-08-03T18:40:07.384Z,3.08
2022-08-03T18:45:55.245Z,2.33
2022-08-03T18:50:36.720Z,2.20
2022-08-03T18:56:01.594Z,2.05
2022-08-03T19:01:06.406Z,1.85
2022-08-03T19:06:28.781Z,2.58
2022-08-03T19:12:14.534Z,2.13
2022-08-03T19:17:07.548Z,2.38
2022-08-03T19:22:10.837Z,2.60
2022-08-03T19:27:13.072Z,2.53
2022-08-03T19:32:19.193Z,2.50
2022-08-03T19:37:22.086Z,2.53
2022-08-03T19:42:31.936Z,2.60
2022-08-03T19:47:39.998Z,2.30
2022-08-03T19:52:47.117Z,2.45
2022-08-03T19:57:53.781Z,2.70
2022-08-03T20:02:59.115Z,2.58
2022-08-03T20:08:03.504Z,2.60
2022-08-03T20:13:05.098Z,2.95
2022-08-03T20:18:16.679Z,2.50
2022-08-03T20:23:19.762Z,2.60
2022-08-03T20:28:26.673Z,2.80
2022-08-03T20:33:46.326Z,3.03
2022-08-03T20:38:51.980Z,2.47
2022-08-03T20:43:53.715Z,2.75
2022-08-03T20:48:57.260Z,2.95
2022-08-03T20:54:03.035Z,3.13
2022-08-03T20:59:07.241Z,2.80
2022-08-03T21:04:21.108Z,3.03
2022-08-03T21:09:40.054Z,2.53
2022-08-03T21:15:01.956Z,2.50
2022-08-03T21:20:07.958Z,2.78
2022-08-03T21:25:09.764Z,3.05
2022-08-03T21:30:11.915Z,3.47
2022-08-03T21:35:14.043Z,3.00
2022-08-03T21:40:16.640Z,4.20
2022-08-03T21:45:18.282Z,3.90
2022-08-03T21:50:20.686Z,3.45
2022-08-03T21:55:26.689Z,3.33
2022-08-03T22:00:28.304Z,3.40
2022-08-03T22:05:43.438Z,2.88
2022-08-03T22:10:46.898Z,3.08
2022-08-03T22:15:48.862Z,3.00
2022-08-03T22:20:51.661Z,2.95
2022-08-03T22:25:53.571Z,3.30
2022-08-03T22:30:55.265Z,3.45
2022-08-03T22:35:58.935Z,3.00
2022-08-03T22:41:00.680Z,3.20
2022-08-03T22:46:10.565Z,2.83
2022-08-03T22:51:15.369Z,2.85
2022-08-03T22:56:16.912Z,3.10
2022-08-03T23:01:20.572Z,3.47
2022-08-03T23:06:23.468Z,2.90
2022-08-03T23:11:25.922Z,2.83
2022-08-03T23:16:29.237Z,3.20
2022-08-03T23:21:53.989Z,3.40
2022-08-03T23:26:53.548Z,3.38
2022-08-03T23:31:56.685Z,3.55
2022-08-03T23:37:00.919Z,3.33
2022-08-03T23:42:03.074Z,3.40
2022-08-03T23:47:04.723Z,3.60
2022-08-03T23:52:25.454Z,3.53
2022-08-03T23:57:48.999Z,3.63
